Terminal Aerodrome Forecast
Issued by NWS

Home | Current Version | Previous Version | Text Only | Print | Product List | Glossary On
Versions: 1 2 3 4 5 6 7 8 9 10 11 12 13 14 15 16
912
FTUS45 KABQ 031743
TAFTCC
TAF
KTCC 031743Z 0318/0418 04010KT P6SM VCSH OVC020
      TEMPO 0318/0319 2SM -SHRASN OVC006
     FM031900 VRB05KT P6SM -RA OVC025
     FM032300 VRB05KT P6SM FEW070 SCT100
     FM040400 VRB05KT P6SM OVC015=

USA.gov is the U.S. government's official web portal to all federal, state and local government web resources and services.